sensor_id;sensor_type;location;lat;lon;timestamp;temperature;humidity
75170;SHT31;63749;49.186;9.222;2024-01-15T00:00:14;-1.62;85.18
75170;SHT31;63749;49.186;9.222;2024-01-15T00:02:39;-1.59;85.25
75170;SHT31;63749;49.186;9.222;2024-01-15T00:05:05;-1.64;85.30
75170;SHT31;63749;49.186;9.222;2024-01-15T00:07:30;-1.64;85.54
75170;SHT31;63749;49.186;9.222;2024-01-15T00:09:55;-1.64;85.68
75170;SHT31;63749;49.186;9.222;2024-01-15T00:12:21;-1.63;85.64
75170;SHT31;63749;49.186;9.222;2024-01-15T00:14:46;-1.63;85.71
75170;SHT31;63749;49.186;9.222;2024-01-15T00:17:12;-1.59;85.80
75170;SHT31;63749;49.186;9.222;2024-01-15T00:19:38;-1.69;85.97
75170;SHT31;63749;49.186;9.222;2024-01-15T00:22:03;-1.66;86.02
75170;SHT31;63749;49.186;9.222;2024-01-15T00:24:29;-1.60;86.12
75170;SHT31;63749;49.186;9.222;2024-01-15T00:26:54;-1.59;85.86
75170;SHT31;63749;49.186;9.222;2024-01-15T00:29:20;-1.60;86.03
75170;SHT31;63749;49.186;9.222;2024-01-15T00:31:46;-1.53;86.16
75170;SHT31;63749;49.186;9.222;2024-01-15T00:34:11;-1.56;86.31
75170;SHT31;63749;49.186;9.222;2024-01-15T00:36:36;-1.53;86.02
75170;SHT31;63749;49.186;9.222;2024-01-15T00:39:02;-1.55;86.19
75170;SHT31;63749;49.186;9.222;2024-01-15T00:41:30;-1.50;86.37
75170;SHT31;63749;49.186;9.222;2024-01-15T00:43:56;-1.60;86.69
75170;SHT31;63749;49.186;9.222;2024-01-15T00:46:21;-1.59;86.56
75170;SHT31;63749;49.186;9.222;2024-01-15T00:48:47;-1.58;86.90
75170;SHT31;63749;49.186;9.222;2024-01-15T00:51:12;-1.55;87.11
75170;SHT31;63749;49.186;9.222;2024-01-15T00:53:38;-1.55;86.80
75170;SHT31;63749;49.186;9.222;2024-01-15T00:56:03;-1.55;86.75
75170;SHT31;63749;49.186;9.222;2024-01-15T00:58:28;-1.62;87.03
75170;SHT31;63749;49.186;9.222;2024-01-15T01:00:54;-1.56;86.99
75170;SHT31;63749;49.186;9.222;2024-01-15T01:03:20;-1.62;87.06
75170;SHT31;63749;49.186;9.222;2024-01-15T01:05:48;-1.58;87.10
75170;SHT31;63749;49.186;9.222;2024-01-15T01:08:13;-1.55;86.93
75170;SHT31;63749;49.186;9.222;2024-01-15T01:10:39;-1.53;86.80
75170;SHT31;63749;49.186;9.222;2024-01-15T01:13:04;-1.53;86.86
75170;SHT31;63749;49.186;9.222;2024-01-15T01:15:29;-1.55;86.57
75170;SHT31;63749;49.186;9.222;2024-01-15T01:17:55;-1.55;86.71
75170;SHT31;63749;49.186;9.222;2024-01-15T01:20:20;-1.56;86.66
75170;SHT31;63749;49.186;9.222;2024-01-15T01:22:45;-1.55;86.50
75170;SHT31;63749;49.186;9.222;2024-01-15T01:25:11;-1.56;86.46
75170;SHT31;63749;49.186;9.222;2024-01-15T01:27:36;-1.53;86.65
75170;SHT31;63749;49.186;9.222;2024-01-15T01:30:02;-1.49;86.36
75170;SHT31;63749;49.186;9.222;2024-01-15T01:32:28;-1.52;86.48
75170;SHT31;63749;49.186;9.222;2024-01-15T01:34:54;-1.49;86.52
75170;SHT31;63749;49.186;9.222;2024-01-15T01:37:19;-1.45;86.28
75170;SHT31;63749;49.186;9.222;2024-01-15T01:39:45;-1.45;86.07
75170;SHT31;63749;49.186;9.222;2024-01-15T01:42:11;-1.49;86.43
75170;SHT31;63749;49.186;9.222;2024-01-15T01:44:36;-1.43;86.35
75170;SHT31;63749;49.186;9.222;2024-01-15T01:47:02;-1.39;86.18
75170;SHT31;63749;49.186;9.222;2024-01-15T01:49:28;-1.39;85.88
75170;SHT31;63749;49.186;9.222;2024-01-15T01:51:57;-1.32;85.83
75170;SHT31;63749;49.186;9.222;2024-01-15T01:54:25;-1.39;85.86
75170;SHT31;63749;49.186;9.222;2024-01-15T01:56:51;-1.32;85.76
75170;SHT31;63749;49.186;9.222;2024-01-15T01:59:17;-1.35;85.56
75170;SHT31;63749;49.186;9.222;2024-01-15T02:01:44;-1.31;85.48
75170;SHT31;63749;49.186;9.222;2024-01-15T02:04:11;-1.31;85.66
75170;SHT31;63749;49.186;9.222;2024-01-15T02:06:36;-1.31;85.51
75170;SHT31;63749;49.186;9.222;2024-01-15T02:09:02;-1.25;85.48
75170;SHT31;63749;49.186;9.222;2024-01-15T02:11:28;-1.27;85.45
75170;SHT31;63749;49.186;9.222;2024-01-15T02:13:53;-1.24;85.49
75170;SHT31;63749;49.186;9.222;2024-01-15T02:16:19;-1.19;85.51
75170;SHT31;63749;49.186;9.222;2024-01-15T02:18:46;-1.25;85.40
75170;SHT31;63749;49.186;9.222;2024-01-15T02:21:11;-1.21;85.41
75170;SHT31;63749;49.186;9.222;2024-01-15T02:23:37;-1.21;85.43
75170;SHT31;63749;49.186;9.222;2024-01-15T02:26:04;-1.09;85.29
75170;SHT31;63749;49.186;9.222;2024-01-15T02:28:30;-1.16;85.33
75170;SHT31;63749;49.186;9.222;2024-01-15T02:30:55;-1.12;85.33
75170;SHT31;63749;49.186;9.222;2024-01-15T02:33:20;-1.12;85.46
75170;SHT31;63749;49.186;9.222;2024-01-15T02:35:46;-1.09;85.70
75170;SHT31;63749;49.186;9.222;2024-01-15T02:38:12;-1.12;85.67
75170;SHT31;63749;49.186;9.222;2024-01-15T02:40:38;-1.08;85.62
75170;SHT31;63749;49.186;9.222;2024-01-15T02:43:04;-1.04;85.44
75170;SHT31;63749;49.186;9.222;2024-01-15T02:45:29;-1.07;85.55
75170;SHT31;63749;49.186;9.222;2024-01-15T02:47:55;-1.12;85.68
75170;SHT31;63749;49.186;9.222;2024-01-15T02:50:20;-1.09;85.99
75170;SHT31;63749;49.186;9.222;2024-01-15T02:52:46;-1.07;85.68
75170;SHT31;63749;49.186;9.222;2024-01-15T02:55:11;-1.07;85.46
75170;SHT31;63749;49.186;9.222;2024-01-15T02:57:37;-1.05;85.67
75170;SHT31;63749;49.186;9.222;2024-01-15T03:00:02;-1.08;85.66
75170;SHT31;63749;49.186;9.222;2024-01-15T03:02:29;-1.09;85.71
75170;SHT31;63749;49.186;9.222;2024-01-15T03:04:57;-1.02;85.62
75170;SHT31;63749;49.186;9.222;2024-01-15T03:07:22;-1.04;85.66
75170;SHT31;63749;49.186;9.222;2024-01-15T03:09:47;-1.05;85.57
75170;SHT31;63749;49.186;9.222;2024-01-15T03:12:13;-1.09;85.75
75170;SHT31;63749;49.186;9.222;2024-01-15T03:14:38;-1.09;85.70
75170;SHT31;63749;49.186;9.222;2024-01-15T03:17:04;-1.08;85.49
75170;SHT31;63749;49.186;9.222;2024-01-15T03:19:29;-1.02;85.00
75170;SHT31;63749;49.186;9.222;2024-01-15T03:21:56;-1.09;85.17
75170;SHT31;63749;49.186;9.222;2024-01-15T03:24:21;-1.08;85.13
75170;SHT31;63749;49.186;9.222;2024-01-15T03:26:46;-1.02;85.15
75170;SHT31;63749;49.186;9.222;2024-01-15T03:29:12;-1.05;85.46
75170;SHT31;63749;49.186;9.222;2024-01-15T03:31:37;-0.98;85.19
75170;SHT31;63749;49.186;9.222;2024-01-15T03:34:03;-1.04;85.34
75170;SHT31;63749;49.186;9.222;2024-01-15T03:36:28;-1.07;85.59
75170;SHT31;63749;49.186;9.222;2024-01-15T03:38:54;-1.07;85.54
75170;SHT31;63749;49.186;9.222;2024-01-15T03:41:19;-1.12;85.62
75170;SHT31;63749;49.186;9.222;2024-01-15T03:43:44;-1.12;85.87
75170;SHT31;63749;49.186;9.222;2024-01-15T03:46:10;-1.12;85.87
75170;SHT31;63749;49.186;9.222;2024-01-15T03:48:35;-1.09;85.74
75170;SHT31;63749;49.186;9.222;2024-01-15T03:51:01;-1.04;85.55
75170;SHT31;63749;49.186;9.222;2024-01-15T03:53:26;-1.01;85.32
75170;SHT31;63749;49.186;9.222;2024-01-15T03:55:52;-0.98;85.58
75170;SHT31;63749;49.186;9.222;2024-01-15T03:58:17;-1.02;85.59
75170;SHT31;63749;49.186;9.222;2024-01-15T04:00:43;-1.05;85.49
75170;SHT31;63749;49.186;9.222;2024-01-15T04:03:08;-1.04;85.62
75170;SHT31;63749;49.186;9.222;2024-01-15T04:05:34;-1.11;85.64
75170;SHT31;63749;49.186;9.222;2024-01-15T04:07:59;-1.05;85.81
75170;SHT31;63749;49.186;9.222;2024-01-15T04:10:25;-1.05;85.94
75170;SHT31;63749;49.186;9.222;2024-01-15T04:12:50;-1.08;85.96
75170;SHT31;63749;49.186;9.222;2024-01-15T04:15:15;-1.01;85.65
75170;SHT31;63749;49.186;9.222;2024-01-15T04:17:41;-1.07;85.70
75170;SHT31;63749;49.186;9.222;2024-01-15T04:20:07;-1.04;85.71
75170;SHT31;63749;49.186;9.222;2024-01-15T04:22:35;-1.07;85.87
75170;SHT31;63749;49.186;9.222;2024-01-15T04:25:00;-1.04;85.86
75170;SHT31;63749;49.186;9.222;2024-01-15T04:27:25;-1.07;85.99
75170;SHT31;63749;49.186;9.222;2024-01-15T04:29:51;-1.04;85.67
75170;SHT31;63749;49.186;9.222;2024-01-15T04:32:16;-1.02;85.77
75170;SHT31;63749;49.186;9.222;2024-01-15T04:34:41;-1.15;85.99
75170;SHT31;63749;49.186;9.222;2024-01-15T04:37:07;-1.11;86.14
75170;SHT31;63749;49.186;9.222;2024-01-15T04:39:32;-1.02;85.62
75170;SHT31;63749;49.186;9.222;2024-01-15T04:41:58;-1.02;85.66
75170;SHT31;63749;49.186;9.222;2024-01-15T04:44:23;-1.08;85.94
75170;SHT31;63749;49.186;9.222;2024-01-15T04:46:48;-1.07;85.83
75170;SHT31;63749;49.186;9.222;2024-01-15T04:49:14;-1.07;85.89
75170;SHT31;63749;49.186;9.222;2024-01-15T04:51:39;-0.98;85.84
75170;SHT31;63749;49.186;9.222;2024-01-15T04:54:05;-1.02;85.82
75170;SHT31;63749;49.186;9.222;2024-01-15T04:56:30;-1.05;86.32
75170;SHT31;63749;49.186;9.222;2024-01-15T04:58:55;-1.01;86.02
75170;SHT31;63749;49.186;9.222;2024-01-15T05:01:21;-0.95;85.76
75170;SHT31;63749;49.186;9.222;2024-01-15T05:03:47;-0.98;85.96
75170;SHT31;63749;49.186;9.222;2024-01-15T05:06:13;-1.02;86.25
75170;SHT31;63749;49.186;9.222;2024-01-15T05:08:38;-0.94;86.09
75170;SHT31;63749;49.186;9.222;2024-01-15T05:11:03;-0.98;86.28
75170;SHT31;63749;49.186;9.222;2024-01-15T05:13:29;-1.00;86.43
75170;SHT31;63749;49.186;9.222;2024-01-15T05:15:54;-1.01;86.25
75170;SHT31;63749;49.186;9.222;2024-01-15T05:18:19;-0.92;86.40
75170;SHT31;63749;49.186;9.222;2024-01-15T05:20:45;-1.01;86.74
75170;SHT31;63749;49.186;9.222;2024-01-15T05:23:10;-0.92;86.50
75170;SHT31;63749;49.186;9.222;2024-01-15T05:25:36;-0.91;86.40
75170;SHT31;63749;49.186;9.222;2024-01-15T05:28:01;-0.87;86.41
75170;SHT31;63749;49.186;9.222;2024-01-15T05:30:27;-0.92;86.78
75170;SHT31;63749;49.186;9.222;2024-01-15T05:32:53;-0.97;86.88
75170;SHT31;63749;49.186;9.222;2024-01-15T05:35:18;-0.88;86.58
75170;SHT31;63749;49.186;9.222;2024-01-15T05:37:44;-0.85;86.65
75170;SHT31;63749;49.186;9.222;2024-01-15T05:40:11;-0.85;86.49
75170;SHT31;63749;49.186;9.222;2024-01-15T05:42:37;-0.87;86.48
75170;SHT31;63749;49.186;9.222;2024-01-15T05:45:03;-0.83;86.59
75170;SHT31;63749;49.186;9.222;2024-01-15T05:47:30;-0.88;86.57
75170;SHT31;63749;49.186;9.222;2024-01-15T05:49:56;-0.92;86.89
75170;SHT31;63749;49.186;9.222;2024-01-15T05:52:22;-0.83;86.70
75170;SHT31;63749;49.186;9.222;2024-01-15T05:54:49;-0.80;86.65
75170;SHT31;63749;49.186;9.222;2024-01-15T05:57:20;-0.83;86.78
75170;SHT31;63749;49.186;9.222;2024-01-15T05:59:45;-0.74;86.62
75170;SHT31;63749;49.186;9.222;2024-01-15T06:02:11;-0.74;86.64
75170;SHT31;63749;49.186;9.222;2024-01-15T06:04:37;-0.79;86.58
75170;SHT31;63749;49.186;9.222;2024-01-15T06:07:02;-0.81;86.88
75170;SHT31;63749;49.186;9.222;2024-01-15T06:09:30;-0.69;86.72
75170;SHT31;63749;49.186;9.222;2024-01-15T06:11:56;-0.66;86.35
75170;SHT31;63749;49.186;9.222;2024-01-15T06:14:22;-0.67;86.44
75170;SHT31;63749;49.186;9.222;2024-01-15T06:16:47;-0.64;86.56
75170;SHT31;63749;49.186;9.222;2024-01-15T06:19:12;-0.70;86.78
75170;SHT31;63749;49.186;9.222;2024-01-15T06:21:38;-0.70;86.88
75170;SHT31;63749;49.186;9.222;2024-01-15T06:24:03;-0.66;86.94
75170;SHT31;63749;49.186;9.222;2024-01-15T06:26:29;-0.63;86.80
75170;SHT31;63749;49.186;9.222;2024-01-15T06:28:54;-0.63;87.05
75170;SHT31;63749;49.186;9.222;2024-01-15T06:31:20;-0.57;86.70
75170;SHT31;63749;49.186;9.222;2024-01-15T06:33:46;-0.54;86.54
75170;SHT31;63749;49.186;9.222;2024-01-15T06:36:13;-0.43;86.14
75170;SHT31;63749;49.186;9.222;2024-01-15T06:38:39;-0.43;86.03
75170;SHT31;63749;49.186;9.222;2024-01-15T06:41:04;-0.44;86.16
75170;SHT31;63749;49.186;9.222;2024-01-15T06:43:29;-0.37;86.16
75170;SHT31;63749;49.186;9.222;2024-01-15T06:45:55;-0.37;86.29
75170;SHT31;63749;49.186;9.222;2024-01-15T06:48:20;-0.39;86.09
75170;SHT31;63749;49.186;9.222;2024-01-15T06:50:46;-0.50;86.39
75170;SHT31;63749;49.186;9.222;2024-01-15T06:53:11;-0.40;86.23
75170;SHT31;63749;49.186;9.222;2024-01-15T06:55:37;-0.39;86.21
75170;SHT31;63749;49.186;9.222;2024-01-15T06:58:03;-0.37;86.09
75170;SHT31;63749;49.186;9.222;2024-01-15T07:00:28;-0.37;86.13
75170;SHT31;63749;49.186;9.222;2024-01-15T07:02:54;-0.25;87.35
75170;SHT31;63749;49.186;9.222;2024-01-15T07:05:20;-0.03;86.94
75170;SHT31;63749;49.186;9.222;2024-01-15T07:07:46;0.09;86.21
75170;SHT31;63749;49.186;9.222;2024-01-15T07:10:12;0.22;85.87
75170;SHT31;63749;49.186;9.222;2024-01-15T07:12:38;0.22;86.76
75170;SHT31;63749;49.186;9.222;2024-01-15T07:15:04;0.15;84.57
75170;SHT31;63749;49.186;9.222;2024-01-15T07:17:31;-0.02;84.91
75170;SHT31;63749;49.186;9.222;2024-01-15T07:19:57;-0.08;85.36
75170;SHT31;63749;49.186;9.222;2024-01-15T07:22:22;-0.12;85.60
75170;SHT31;63749;49.186;9.222;2024-01-15T07:24:47;-0.19;85.82
75170;SHT31;63749;49.186;9.222;2024-01-15T07:27:13;-0.18;85.69
75170;SHT31;63749;49.186;9.222;2024-01-15T07:29:38;-0.22;85.83
75170;SHT31;63749;49.186;9.222;2024-01-15T07:32:04;-0.23;85.88
75170;SHT31;63749;49.186;9.222;2024-01-15T07:34:29;-0.26;86.03
75170;SHT31;63749;49.186;9.222;2024-01-15T07:36:55;-0.22;86.08
75170;SHT31;63749;49.186;9.222;2024-01-15T07:39:20;-0.18;85.82
75170;SHT31;63749;49.186;9.222;2024-01-15T07:41:47;-0.16;85.43
75170;SHT31;63749;49.186;9.222;2024-01-15T07:44:13;-0.11;85.06
75170;SHT31;63749;49.186;9.222;2024-01-15T07:46:38;-0.06;84.80
75170;SHT31;63749;49.186;9.222;2024-01-15T07:49:04;-0.06;84.80
75170;SHT31;63749;49.186;9.222;2024-01-15T07:51:30;-0.08;84.73
75170;SHT31;63749;49.186;9.222;2024-01-15T07:53:56;-0.06;84.86
75170;SHT31;63749;49.186;9.222;2024-01-15T07:56:21;-0.08;84.88
75170;SHT31;63749;49.186;9.222;2024-01-15T07:58:47;-0.03;85.04
75170;SHT31;63749;49.186;9.222;2024-01-15T08:01:12;-0.05;84.85
75170;SHT31;63749;49.186;9.222;2024-01-15T08:03:38;-0.08;85.22
75170;SHT31;63749;49.186;9.222;2024-01-15T08:06:03;-0.12;85.45
75170;SHT31;63749;49.186;9.222;2024-01-15T08:08:29;-0.15;85.54
75170;SHT31;63749;49.186;9.222;2024-01-15T08:10:54;-0.03;85.42
75170;SHT31;63749;49.186;9.222;2024-01-15T08:13:20;-0.08;85.55
75170;SHT31;63749;49.186;9.222;2024-01-15T08:15:46;0.06;85.13
75170;SHT31;63749;49.186;9.222;2024-01-15T08:18:11;0.18;85.71
75170;SHT31;63749;49.186;9.222;2024-01-15T08:20:36;0.18;84.00
75170;SHT31;63749;49.186;9.222;2024-01-15T08:23:02;0.56;86.74
75170;SHT31;63749;49.186;9.222;2024-01-15T08:25:27;0.39;84.61
75170;SHT31;63749;49.186;9.222;2024-01-15T08:27:53;0.28;84.85
75170;SHT31;63749;49.186;9.222;2024-01-15T08:30:18;0.28;85.66
75170;SHT31;63749;49.186;9.222;2024-01-15T08:32:44;1.08;85.06
75170;SHT31;63749;49.186;9.222;2024-01-15T08:35:10;0.78;85.43
75170;SHT31;63749;49.186;9.222;2024-01-15T08:37:36;0.33;85.13
75170;SHT31;63749;49.186;9.222;2024-01-15T08:40:02;0.16;86.13
75170;SHT31;63749;49.186;9.222;2024-01-15T08:42:28;0.12;86.55
75170;SHT31;63749;49.186;9.222;2024-01-15T08:44:54;0.03;87.05
75170;SHT31;63749;49.186;9.222;2024-01-15T08:47:19;0.06;86.97
75170;SHT31;63749;49.186;9.222;2024-01-15T08:49:44;-0.02;87.18
75170;SHT31;63749;49.186;9.222;2024-01-15T08:52:11;-0.06;87.68
75170;SHT31;63749;49.186;9.222;2024-01-15T08:54:37;-0.02;87.33
75170;SHT31;63749;49.186;9.222;2024-01-15T08:57:02;0.03;87.61
75170;SHT31;63749;49.186;9.222;2024-01-15T08:59:28;-0.06;87.98
75170;SHT31;63749;49.186;9.222;2024-01-15T09:01:53;-0.03;87.85
75170;SHT31;63749;49.186;9.222;2024-01-15T09:04:19;0.02;88.00
75170;SHT31;63749;49.186;9.222;2024-01-15T09:06:47;0.01;88.22
75170;SHT31;63749;49.186;9.222;2024-01-15T09:09:13;0.06;87.90
75170;SHT31;63749;49.186;9.222;2024-01-15T09:11:42;0.13;87.50
75170;SHT31;63749;49.186;9.222;2024-01-15T09:14:07;0.09;87.70
75170;SHT31;63749;49.186;9.222;2024-01-15T09:16:34;0.09;88.11
75170;SHT31;63749;49.186;9.222;2024-01-15T09:18:59;0.16;87.96
75170;SHT31;63749;49.186;9.222;2024-01-15T09:21:25;0.25;87.32
75170;SHT31;63749;49.186;9.222;2024-01-15T09:23:51;0.20;87.49
75170;SHT31;63749;49.186;9.222;2024-01-15T09:26:17;0.22;87.44
75170;SHT31;63749;49.186;9.222;2024-01-15T09:28:43;0.23;87.81
75170;SHT31;63749;49.186;9.222;2024-01-15T09:31:08;0.36;87.45
75170;SHT31;63749;49.186;9.222;2024-01-15T09:33:33;0.29;87.36
75170;SHT31;63749;49.186;9.222;2024-01-15T09:36:02;0.46;86.82
75170;SHT31;63749;49.186;9.222;2024-01-15T09:38:31;0.56;86.34
75170;SHT31;63749;49.186;9.222;2024-01-15T09:40:57;0.50;86.81
75170;SHT31;63749;49.186;9.222;2024-01-15T09:43:23;0.52;86.75
75170;SHT31;63749;49.186;9.222;2024-01-15T09:45:49;0.49;86.99
75170;SHT31;63749;49.186;9.222;2024-01-15T09:48:15;0.52;87.39
75170;SHT31;63749;49.186;9.222;2024-01-15T09:50:42;0.68;86.74
75170;SHT31;63749;49.186;9.222;2024-01-15T09:53:09;0.60;87.10
75170;SHT31;63749;49.186;9.222;2024-01-15T09:55:36;0.73;86.37
75170;SHT31;63749;49.186;9.222;2024-01-15T09:58:03;0.80;86.69
75170;SHT31;63749;49.186;9.222;2024-01-15T10:00:29;0.84;86.27
75170;SHT31;63749;49.186;9.222;2024-01-15T10:02:55;0.76;87.36
75170;SHT31;63749;49.186;9.222;2024-01-15T10:05:21;0.70;88.47
75170;SHT31;63749;49.186;9.222;2024-01-15T10:07:47;0.71;89.34
75170;SHT31;63749;49.186;9.222;2024-01-15T10:10:15;0.74;89.65
75170;SHT31;63749;49.186;9.222;2024-01-15T10:12:40;0.76;89.69
75170;SHT31;63749;49.186;9.222;2024-01-15T10:15:09;0.71;90.07
75170;SHT31;63749;49.186;9.222;2024-01-15T10:17:37;0.64;90.48
75170;SHT31;63749;49.186;9.222;2024-01-15T10:20:02;0.60;91.32
75170;SHT31;63749;49.186;9.222;2024-01-15T10:22:29;0.68;91.52
75170;SHT31;63749;49.186;9.222;2024-01-15T10:24:54;0.73;90.98
75170;SHT31;63749;49.186;9.222;2024-01-15T10:27:19;0.71;90.50
75170;SHT31;63749;49.186;9.222;2024-01-15T10:29:45;0.76;90.50
75170;SHT31;63749;49.186;9.222;2024-01-15T10:32:11;0.71;90.13
75170;SHT31;63749;49.186;9.222;2024-01-15T10:34:38;0.70;90.41
75170;SHT31;63749;49.186;9.222;2024-01-15T10:37:05;0.66;90.66
75170;SHT31;63749;49.186;9.222;2024-01-15T10:39:32;0.71;90.39
75170;SHT31;63749;49.186;9.222;2024-01-15T10:41:57;0.60;91.00
75170;SHT31;63749;49.186;9.222;2024-01-15T10:44:22;0.59;91.29
75170;SHT31;63749;49.186;9.222;2024-01-15T10:46:48;0.61;91.80
75170;SHT31;63749;49.186;9.222;2024-01-15T10:49:13;0.54;92.29
75170;SHT31;63749;49.186;9.222;2024-01-15T10:51:39;0.61;92.01
75170;SHT31;63749;49.186;9.222;2024-01-15T10:54:05;0.63;92.34
75170;SHT31;63749;49.186;9.222;2024-01-15T10:56:32;0.67;92.03
75170;SHT31;63749;49.186;9.222;2024-01-15T10:58:59;0.71;91.93
75170;SHT31;63749;49.186;9.222;2024-01-15T11:01:25;0.66;91.72
75170;SHT31;63749;49.186;9.222;2024-01-15T11:03:50;0.56;92.36
75170;SHT31;63749;49.186;9.222;2024-01-15T11:06:19;0.54;92.64
75170;SHT31;63749;49.186;9.222;2024-01-15T11:08:48;0.54;92.60
75170;SHT31;63749;49.186;9.222;2024-01-15T11:11:15;0.54;92.85
75170;SHT31;63749;49.186;9.222;2024-01-15T11:13:41;0.52;93.02
75170;SHT31;63749;49.186;9.222;2024-01-15T11:16:10;0.46;93.93
75170;SHT31;63749;49.186;9.222;2024-01-15T11:21:26;0.42;93.93
75170;SHT31;63749;49.186;9.222;2024-01-15T11:23:53;0.38;94.33
75170;SHT31;63749;49.186;9.222;2024-01-15T11:29:10;0.38;94.24
75170;SHT31;63749;49.186;9.222;2024-01-15T11:32:00;0.47;93.70
75170;SHT31;63749;49.186;9.222;2024-01-15T11:34:51;0.50;93.52
75170;SHT31;63749;49.186;9.222;2024-01-15T11:37:18;0.67;93.10
75170;SHT31;63749;49.186;9.222;2024-01-15T11:39:44;0.78;92.61
75170;SHT31;63749;49.186;9.222;2024-01-15T11:42:13;0.74;92.60
75170;SHT31;63749;49.186;9.222;2024-01-15T11:44:39;0.74;92.62
75170;SHT31;63749;49.186;9.222;2024-01-15T11:47:09;0.80;92.73
75170;SHT31;63749;49.186;9.222;2024-01-15T11:52:04;0.92;92.20
75170;SHT31;63749;49.186;9.222;2024-01-15T11:54:32;0.90;92.06
75170;SHT31;63749;49.186;9.222;2024-01-15T11:57:00;0.92;91.68
75170;SHT31;63749;49.186;9.222;2024-01-15T11:59:29;0.92;92.04
75170;SHT31;63749;49.186;9.222;2024-01-15T12:01:54;0.90;92.07
75170;SHT31;63749;49.186;9.222;2024-01-15T12:04:20;0.85;92.43
75170;SHT31;63749;49.186;9.222;2024-01-15T12:06:46;0.99;92.12
75170;SHT31;63749;49.186;9.222;2024-01-15T12:09:12;1.07;91.96
75170;SHT31;63749;49.186;9.222;2024-01-15T12:11:38;1.15;92.02
75170;SHT31;63749;49.186;9.222;2024-01-15T12:14:08;1.12;91.97
75170;SHT31;63749;49.186;9.222;2024-01-15T12:16:33;1.17;92.23
75170;SHT31;63749;49.186;9.222;2024-01-15T12:18:59;1.17;92.28
75170;SHT31;63749;49.186;9.222;2024-01-15T12:21:26;1.08;92.61
75170;SHT31;63749;49.186;9.222;2024-01-15T12:23:51;1.01;92.79
75170;SHT31;63749;49.186;9.222;2024-01-15T12:26:17;1.01;93.01
75170;SHT31;63749;49.186;9.222;2024-01-15T12:28:43;0.99;93.30
75170;SHT31;63749;49.186;9.222;2024-01-15T12:31:08;1.04;93.47
75170;SHT31;63749;49.186;9.222;2024-01-15T12:33:34;1.05;93.20
75170;SHT31;63749;49.186;9.222;2024-01-15T12:35:59;0.98;93.49
75170;SHT31;63749;49.186;9.222;2024-01-15T12:38:24;1.05;93.29
75170;SHT31;63749;49.186;9.222;2024-01-15T12:40:50;1.04;93.05
75170;SHT31;63749;49.186;9.222;2024-01-15T12:43:17;1.09;93.05
75170;SHT31;63749;49.186;9.222;2024-01-15T12:45:42;1.12;92.88
75170;SHT31;63749;49.186;9.222;2024-01-15T12:48:08;1.12;92.82
75170;SHT31;63749;49.186;9.222;2024-01-15T12:50:34;1.19;92.62
75170;SHT31;63749;49.186;9.222;2024-01-15T12:53:01;1.21;92.58
75170;SHT31;63749;49.186;9.222;2024-01-15T12:55:27;1.27;92.59
75170;SHT31;63749;49.186;9.222;2024-01-15T12:57:52;1.27;92.50
75170;SHT31;63749;49.186;9.222;2024-01-15T13:00:20;1.22;92.56
75170;SHT31;63749;49.186;9.222;2024-01-15T13:02:45;1.21;92.60
75170;SHT31;63749;49.186;9.222;2024-01-15T13:05:11;1.21;92.79
75170;SHT31;63749;49.186;9.222;2024-01-15T13:07:37;1.22;92.84
75170;SHT31;63749;49.186;9.222;2024-01-15T13:10:03;1.19;92.78
75170;SHT31;63749;49.186;9.222;2024-01-15T13:12:28;1.17;93.00
75170;SHT31;63749;49.186;9.222;2024-01-15T13:14:53;1.19;93.28
75170;SHT31;63749;49.186;9.222;2024-01-15T13:17:19;1.15;93.69
75170;SHT31;63749;49.186;9.222;2024-01-15T13:19:46;1.29;93.85
75170;SHT31;63749;49.186;9.222;2024-01-15T13:22:11;1.25;93.08
75170;SHT31;63749;49.186;9.222;2024-01-15T13:24:39;1.29;92.98
75170;SHT31;63749;49.186;9.222;2024-01-15T13:27:04;1.32;92.58
75170;SHT31;63749;49.186;9.222;2024-01-15T13:29:31;1.29;92.36
75170;SHT31;63749;49.186;9.222;2024-01-15T13:31:57;1.34;92.32
75170;SHT31;63749;49.186;9.222;2024-01-15T13:34:22;1.38;92.23
75170;SHT31;63749;49.186;9.222;2024-01-15T13:36:47;1.39;92.40
75170;SHT31;63749;49.186;9.222;2024-01-15T13:39:15;1.43;91.87
75170;SHT31;63749;49.186;9.222;2024-01-15T13:41:45;1.45;91.78
75170;SHT31;63749;49.186;9.222;2024-01-15T13:44:10;1.42;91.11
75170;SHT31;63749;49.186;9.222;2024-01-15T13:46:36;1.43;91.36
75170;SHT31;63749;49.186;9.222;2024-01-15T13:49:01;1.43;91.38
75170;SHT31;63749;49.186;9.222;2024-01-15T13:51:28;1.39;90.99
75170;SHT31;63749;49.186;9.222;2024-01-15T13:53:53;1.43;91.23
75170;SHT31;63749;49.186;9.222;2024-01-15T13:56:19;1.55;90.67
75170;SHT31;63749;49.186;9.222;2024-01-15T13:58:44;1.57;90.77
75170;SHT31;63749;49.186;9.222;2024-01-15T14:01:11;1.60;90.26
75170;SHT31;63749;49.186;9.222;2024-01-15T14:03:36;1.62;90.62
75170;SHT31;63749;49.186;9.222;2024-01-15T14:06:01;1.62;90.10
75170;SHT31;63749;49.186;9.222;2024-01-15T14:08:35;1.63;90.07
75170;SHT31;63749;49.186;9.222;2024-01-15T14:11:00;1.57;89.75
75170;SHT31;63749;49.186;9.222;2024-01-15T14:13:26;1.53;89.79
75170;SHT31;63749;49.186;9.222;2024-01-15T14:15:51;1.55;89.74
75170;SHT31;63749;49.186;9.222;2024-01-15T14:18:17;1.52;90.11
75170;SHT31;63749;49.186;9.222;2024-01-15T14:20:43;1.53;90.18
75170;SHT31;63749;49.186;9.222;2024-01-15T14:23:08;1.55;90.33
75170;SHT31;63749;49.186;9.222;2024-01-15T14:25:34;1.55;90.06
75170;SHT31;63749;49.186;9.222;2024-01-15T14:27:59;1.79;89.43
75170;SHT31;63749;49.186;9.222;2024-01-15T14:30:25;1.70;89.55
75170;SHT31;63749;49.186;9.222;2024-01-15T14:32:50;1.43;90.00
75170;SHT31;63749;49.186;9.222;2024-01-15T14:35:15;1.36;90.78
75170;SHT31;63749;49.186;9.222;2024-01-15T14:37:41;1.40;90.51
75170;SHT31;63749;49.186;9.222;2024-01-15T14:40:07;1.35;90.49
75170;SHT31;63749;49.186;9.222;2024-01-15T14:42:33;1.40;90.34
75170;SHT31;63749;49.186;9.222;2024-01-15T14:44:59;1.39;90.30
75170;SHT31;63749;49.186;9.222;2024-01-15T14:47:24;1.27;90.48
75170;SHT31;63749;49.186;9.222;2024-01-15T14:49:50;1.22;90.95
75170;SHT31;63749;49.186;9.222;2024-01-15T14:52:16;1.18;91.18
75170;SHT31;63749;49.186;9.222;2024-01-15T14:54:41;1.18;91.29
75170;SHT31;63749;49.186;9.222;2024-01-15T14:57:07;1.28;90.96
75170;SHT31;63749;49.186;9.222;2024-01-15T14:59:32;1.24;90.72
75170;SHT31;63749;49.186;9.222;2024-01-15T15:01:57;1.21;90.88
75170;SHT31;63749;49.186;9.222;2024-01-15T15:04:23;1.18;91.07
75170;SHT31;63749;49.186;9.222;2024-01-15T15:06:48;1.24;90.90
75170;SHT31;63749;49.186;9.222;2024-01-15T15:09:13;1.24;90.56
75170;SHT31;63749;49.186;9.222;2024-01-15T15:11:39;1.19;90.83
75170;SHT31;63749;49.186;9.222;2024-01-15T15:14:04;1.22;90.92
75170;SHT31;63749;49.186;9.222;2024-01-15T15:16:30;1.25;90.56
75170;SHT31;63749;49.186;9.222;2024-01-15T15:18:55;1.25;90.47
75170;SHT31;63749;49.186;9.222;2024-01-15T15:21:21;1.34;90.19
75170;SHT31;63749;49.186;9.222;2024-01-15T15:23:46;1.28;90.53
75170;SHT31;63749;49.186;9.222;2024-01-15T15:26:13;1.24;90.01
75170;SHT31;63749;49.186;9.222;2024-01-15T15:28:38;1.24;90.22
75170;SHT31;63749;49.186;9.222;2024-01-15T15:31:04;1.11;90.47
75170;SHT31;63749;49.186;9.222;2024-01-15T15:33:29;1.18;90.54
75170;SHT31;63749;49.186;9.222;2024-01-15T15:35:55;1.14;90.52